createdAt,value
2022-07-30T00:00:35.344Z,44.82
2022-07-30T00:03:51.561Z,44.89
2022-07-30T00:06:46.273Z,44.78
2022-07-30T00:10:22.555Z,44.91
2022-07-30T00:13:38.482Z,44.95
2022-07-30T00:16:34.511Z,45.20
2022-07-30T00:19:37.115Z,45.02
2022-07-30T00:22:56.184Z,45.21
2022-07-30T00:26:15.123Z,45.15
2022-07-30T00:29:34.362Z,45.26
2022-07-30T00:32:13.528Z,45.49
2022-07-30T00:35:30.583Z,45.36
2022-07-30T00:38:30.762Z,45.26
2022-07-30T00:41:51.197Z,45.44
2022-07-30T00:44:55.245Z,45.53
2022-07-30T00:52:01.188Z,45.83
2022-07-30T00:55:18.365Z,45.79
2022-07-30T00:58:34.248Z,45.69
2022-07-30T01:01:51.243Z,45.99
2022-07-30T01:10:07.238Z,45.86
2022-07-30T01:13:23.414Z,46.19
2022-07-30T01:16:42.608Z,46.10
2022-07-30T01:20:01.137Z,46.24
2022-07-30T01:23:37.129Z,46.16
2022-07-30T01:26:46.184Z,46.24
2022-07-30T01:30:03.248Z,46.55
2022-07-30T01:33:23.114Z,46.60
2022-07-30T01:36:36.165Z,46.57
2022-07-30T01:39:36.141Z,46.53
2022-07-30T01:42:36.301Z,46.76
2022-07-30T01:45:42.342Z,46.60
2022-07-30T01:48:59.432Z,46.61
2022-07-30T01:52:35.017Z,46.82
2022-07-30T01:55:33.385Z,47.04
2022-07-30T01:58:50.107Z,47.18
2022-07-30T02:02:19.330Z,47.18
2022-07-30T02:05:18.176Z,47.07
2022-07-30T02:08:20.226Z,47.22
2022-07-30T02:11:53.648Z,47.26
2022-07-30T02:14:47.117Z,47.41
2022-07-30T02:17:46.966Z,47.33
2022-07-30T02:21:02.581Z,47.36
2022-07-30T02:24:22.234Z,47.59
2022-07-30T02:27:38.484Z,47.42
2022-07-30T02:31:00.625Z,47.54
2022-07-30T02:34:17.307Z,47.68
2022-07-30T02:37:42.847Z,47.55
2022-07-30T02:40:58.243Z,47.82
2022-07-30T02:44:17.709Z,47.92
2022-07-30T02:47:32.017Z,47.95
2022-07-30T02:50:49.268Z,47.89
2022-07-30T02:54:07.875Z,48.13
2022-07-30T02:57:25.035Z,48.19
2022-07-30T03:00:40.507Z,48.10
2022-07-30T03:04:00.242Z,48.33
2022-07-30T03:07:17.961Z,48.24
2022-07-30T03:10:22.104Z,48.49
2022-07-30T03:14:20.976Z,48.35
2022-07-30T03:17:03.109Z,48.51
2022-07-30T03:19:38.094Z,48.60
2022-07-30T03:22:19.205Z,48.41
2022-07-30T03:26:06.593Z,48.74
2022-07-30T03:33:38.960Z,48.88
2022-07-30T03:36:54.316Z,48.74
2022-07-30T03:40:35.136Z,48.87
2022-07-30T03:43:51.195Z,48.83
2022-07-30T03:46:52.224Z,49.03
2022-07-30T03:49:49.983Z,49.08
2022-07-30T03:52:39.044Z,49.30
2022-07-30T03:55:43.221Z,49.20
2022-07-30T03:59:24.149Z,49.38
2022-07-30T04:02:18.245Z,49.17
2022-07-30T04:05:43.196Z,49.51
2022-07-30T04:08:40.296Z,49.55
2022-07-30T04:11:51.104Z,49.64
2022-07-30T04:16:36.886Z,49.76
2022-07-30T04:18:56.069Z,49.72
2022-07-30T04:21:33.966Z,49.76
2022-07-30T04:24:07.711Z,49.94
2022-07-30T04:26:39.669Z,49.99
2022-07-30T04:29:16.707Z,49.96
2022-07-30T04:31:50.301Z,50.00
2022-07-30T04:34:55.695Z,50.17
2022-07-30T04:37:44.508Z,50.32
2022-07-30T04:40:15.826Z,50.15
2022-07-30T04:42:46.806Z,50.00
2022-07-30T04:45:17.676Z,50.16
2022-07-30T04:47:56.495Z,50.19
2022-07-30T04:55:05.202Z,50.37
2022-07-30T04:57:39.736Z,50.50
2022-07-30T05:00:12.404Z,50.50
2022-07-30T05:02:45.571Z,50.50
2022-07-30T05:05:18.583Z,50.67
2022-07-30T05:07:50.052Z,50.60
2022-07-30T05:10:25.048Z,50.71
2022-07-30T05:12:55.847Z,50.68
2022-07-30T05:15:36.262Z,50.73
2022-07-30T05:18:17.943Z,50.83
2022-07-30T05:20:50.206Z,50.83
2022-07-30T05:23:26.245Z,50.83
2022-07-30T05:26:05.985Z,50.86
2022-07-30T05:33:16.632Z,51.02
2022-07-30T05:35:48.333Z,50.94
2022-07-30T05:38:20.040Z,51.08
2022-07-30T05:41:31.134Z,51.00
2022-07-30T05:44:09.712Z,51.36
2022-07-30T05:46:41.030Z,51.04
2022-07-30T05:49:11.618Z,51.24
2022-07-30T05:51:44.574Z,51.30
2022-07-30T05:54:15.701Z,51.35
2022-07-30T05:57:05.376Z,51.23
2022-07-30T05:59:38.325Z,51.39
2022-07-30T06:06:48.891Z,51.32
2022-07-30T06:09:36.183Z,51.54
2022-07-30T06:12:07.380Z,51.55
2022-07-30T06:14:38.286Z,51.82
2022-07-30T06:17:10.254Z,51.61
2022-07-30T06:20:11.342Z,51.46
2022-07-30T06:22:53.601Z,51.80
2022-07-30T06:25:30.343Z,51.71
2022-07-30T06:28:20.966Z,51.55
2022-07-30T06:30:52.646Z,51.97
2022-07-30T06:33:24.709Z,51.86
2022-07-30T06:35:56.031Z,51.75
2022-07-30T06:43:33.711Z,51.83
2022-07-30T06:46:24.770Z,51.61
2022-07-30T06:49:34.743Z,51.77
2022-07-30T06:52:33.846Z,51.83
2022-07-30T06:55:04.726Z,51.67
2022-07-30T06:57:43.366Z,51.77
2022-07-30T07:00:38.883Z,51.66
2022-07-30T07:03:14.137Z,51.63
2022-07-30T07:06:08.149Z,51.58
2022-07-30T07:09:00.221Z,51.70
2022-07-30T07:11:38.297Z,51.77
2022-07-30T07:14:17.042Z,51.49
2022-07-30T07:16:55.750Z,51.70
2022-07-30T07:20:00.515Z,51.58
2022-07-30T07:22:43.751Z,51.40
2022-07-30T07:25:40.934Z,51.37
2022-07-30T07:28:49.415Z,51.42
2022-07-30T07:32:02.582Z,51.47
2022-07-30T07:34:17.478Z,51.68
2022-07-30T07:37:33.299Z,51.39
2022-07-30T07:40:09.057Z,51.37
2022-07-30T07:42:44.024Z,51.54
2022-07-30T07:45:14.440Z,51.28
2022-07-30T07:47:53.577Z,51.55
2022-07-30T07:50:42.980Z,51.15
2022-07-30T07:53:20.788Z,51.38
2022-07-30T07:55:51.457Z,51.23
2022-07-30T07:58:26.467Z,51.24
2022-07-30T08:01:04.330Z,51.03
2022-07-30T08:03:55.501Z,51.15
2022-07-30T08:06:44.326Z,51.17
2022-07-30T08:09:40.599Z,51.04
2022-07-30T08:12:30.414Z,50.88
2022-07-30T08:15:22.905Z,50.92
2022-07-30T08:18:11.868Z,50.81
2022-07-30T08:20:46.305Z,50.93
2022-07-30T08:23:25.023Z,50.74
2022-07-30T08:25:55.630Z,50.91
2022-07-30T08:28:35.838Z,50.77
2022-07-30T08:31:09.155Z,50.86
2022-07-30T08:33:39.840Z,50.82
2022-07-30T08:36:11.071Z,50.84
2022-07-30T08:38:41.905Z,50.91
2022-07-30T08:53:23.482Z,50.67
2022-07-30T08:55:58.489Z,50.63
2022-07-30T08:58:35.454Z,50.69
2022-07-30T09:01:08.337Z,50.63
2022-07-30T09:03:44.198Z,50.59
2022-07-30T09:06:15.709Z,50.46
2022-07-30T09:08:45.905Z,50.31
2022-07-30T09:11:38.276Z,50.32
2022-07-30T09:14:14.381Z,50.28
2022-07-30T09:16:46.154Z,50.40
2022-07-30T09:19:23.079Z,50.41
2022-07-30T09:21:58.677Z,50.33
2022-07-30T09:28:16.403Z,50.37
2022-07-30T09:33:36.411Z,50.26
2022-07-30T09:36:34.102Z,50.13
2022-07-30T09:39:40.921Z,50.02
2022-07-30T09:42:23.532Z,50.07
2022-07-30T09:45:06.562Z,50.03
2022-07-30T09:47:39.344Z,50.02
2022-07-30T09:53:12.377Z,50.06
2022-07-30T09:55:45.846Z,50.18
2022-07-30T09:58:27.089Z,50.04
2022-07-30T10:01:03.706Z,49.97
2022-07-30T10:03:57.436Z,49.79
2022-07-30T10:07:04.152Z,49.89
2022-07-30T10:09:47.050Z,49.86
2022-07-30T10:12:18.924Z,49.80
2022-07-30T10:14:56.886Z,49.74
2022-07-30T10:17:27.407Z,49.69
2022-07-30T10:20:28.152Z,49.73
2022-07-30T10:23:19.319Z,49.57
2022-07-30T10:26:11.196Z,49.51
2022-07-30T10:29:00.259Z,49.81
2022-07-30T10:31:48.442Z,49.89
2022-07-30T10:34:23.678Z,49.98
2022-07-30T10:37:06.859Z,49.77
2022-07-30T10:39:58.030Z,49.93
2022-07-30T10:42:48.448Z,49.87
2022-07-30T10:45:20.260Z,49.90
2022-07-30T10:47:56.768Z,49.87
2022-07-30T10:50:29.542Z,50.29
2022-07-30T10:53:02.332Z,50.54
2022-07-30T10:55:38.759Z,50.85
2022-07-30T10:58:14.479Z,51.01
2022-07-30T11:00:54.318Z,51.14
2022-07-30T11:03:41.673Z,51.29
2022-07-30T11:06:24.039Z,51.59
2022-07-30T11:08:57.171Z,51.94
2022-07-30T11:12:01.015Z,51.90
2022-07-30T11:14:21.744Z,51.86
2022-07-30T11:17:20.495Z,52.30
2022-07-30T11:20:07.221Z,52.09
2022-07-30T11:22:45.103Z,52.20
2022-07-30T11:25:49.938Z,52.01
2022-07-30T11:28:43.999Z,51.89
2022-07-30T11:31:36.853Z,51.77
2022-07-30T11:34:20.473Z,51.79
2022-07-30T11:37:22.211Z,51.87
2022-07-30T11:39:58.189Z,51.73
2022-07-30T11:42:36.913Z,51.90
2022-07-30T11:45:33.829Z,52.04
2022-07-30T11:48:12.940Z,51.98
2022-07-30T11:50:44.330Z,52.10
2022-07-30T11:53:22.684Z,52.21
2022-07-30T11:56:00.809Z,52.47
2022-07-30T11:58:34.420Z,52.65
2022-07-30T12:01:09.227Z,52.77
2022-07-30T12:03:43.334Z,52.98
2022-07-30T12:06:18.522Z,52.88
2022-07-30T12:08:58.500Z,52.99
2022-07-30T12:11:37.702Z,53.26
2022-07-30T12:14:08.125Z,53.36
2022-07-30T12:16:38.473Z,53.43
2022-07-30T12:19:09.645Z,53.57
2022-07-30T12:21:40.221Z,53.42
2022-07-30T12:24:12.065Z,53.48
2022-07-30T12:26:42.886Z,53.76
2022-07-30T12:29:14.359Z,53.83
2022-07-30T12:31:46.625Z,53.91
2022-07-30T12:34:28.185Z,53.99
2022-07-30T12:37:10.480Z,54.24
2022-07-30T12:39:41.165Z,54.17
2022-07-30T12:42:22.295Z,54.28
2022-07-30T12:44:52.710Z,54.31
2022-07-30T12:47:31.064Z,54.38
2022-07-30T12:50:06.610Z,54.51
2022-07-30T12:52:38.062Z,54.67
2022-07-30T12:55:14.469Z,54.82
2022-07-30T12:57:55.938Z,55.03
2022-07-30T13:00:29.444Z,54.99
2022-07-30T13:03:00.786Z,54.72
2022-07-30T13:05:51.166Z,54.57
2022-07-30T13:08:48.789Z,54.89
2022-07-30T13:11:20.480Z,55.13
2022-07-30T13:13:52.374Z,55.29
2022-07-30T13:16:23.540Z,55.28
2022-07-30T13:18:53.955Z,55.41
2022-07-30T13:21:24.309Z,55.62
2022-07-30T13:23:54.905Z,55.81
2022-07-30T13:26:25.693Z,55.98
2022-07-30T13:29:01.282Z,56.19
2022-07-30T13:31:43.122Z,56.18
2022-07-30T13:34:14.525Z,56.23
2022-07-30T13:36:45.255Z,56.34
2022-07-30T13:39:15.700Z,56.45
2022-07-30T13:41:46.247Z,56.44
2022-07-30T13:44:16.780Z,56.74
2022-07-30T13:46:47.801Z,56.84
2022-07-30T13:49:18.251Z,56.87
2022-07-30T13:51:48.916Z,56.95
2022-07-30T13:54:19.665Z,57.29
2022-07-30T13:56:50.082Z,57.29
2022-07-30T13:59:20.701Z,57.46
2022-07-30T14:01:51.367Z,57.58
2022-07-30T14:04:21.874Z,57.64
2022-07-30T14:06:52.598Z,57.77
2022-07-30T14:09:22.923Z,57.71
2022-07-30T14:11:53.708Z,57.45
2022-07-30T14:14:24.546Z,57.45
2022-07-30T14:16:55.083Z,57.40
2022-07-30T14:19:26.012Z,57.53
2022-07-30T14:21:56.674Z,57.58
2022-07-30T14:24:27.585Z,57.47
2022-07-30T14:26:58.839Z,57.51
2022-07-30T14:29:29.831Z,57.47
2022-07-30T14:32:00.356Z,57.30
2022-07-30T14:34:31.055Z,57.54
2022-07-30T14:37:02.858Z,57.54
2022-07-30T14:39:35.398Z,57.61
2022-07-30T14:42:06.804Z,57.48
2022-07-30T14:44:37.379Z,57.40
2022-07-30T14:47:08.429Z,57.51
2022-07-30T14:49:39.404Z,57.60
2022-07-30T14:52:10.159Z,57.77
2022-07-30T14:54:40.724Z,57.94
2022-07-30T14:57:11.224Z,57.90
2022-07-30T14:59:41.796Z,58.09
2022-07-30T15:02:12.293Z,58.12
2022-07-30T15:04:42.793Z,58.10
2022-07-30T15:07:13.547Z,58.21
2022-07-30T15:09:45.134Z,58.10
2022-07-30T15:12:23.604Z,58.06
2022-07-30T15:14:57.771Z,57.94
2022-07-30T15:21:02.795Z,57.80
2022-07-30T15:23:33.704Z,57.68
2022-07-30T15:26:04.706Z,57.40
2022-07-30T15:28:35.279Z,57.35
2022-07-30T15:31:06.058Z,57.38
2022-07-30T15:33:42.194Z,57.50
2022-07-30T15:36:13.881Z,57.61
2022-07-30T15:38:44.934Z,57.24
2022-07-30T15:41:19.350Z,57.14
2022-07-30T15:43:49.961Z,57.08
2022-07-30T15:49:37.209Z,56.87
2022-07-30T15:52:08.891Z,56.92
2022-07-30T15:54:39.434Z,56.86
2022-07-30T15:57:10.362Z,56.94
2022-07-30T15:59:41.329Z,56.64
2022-07-30T16:02:13.364Z,56.86
2022-07-30T16:04:44.220Z,57.12
2022-07-30T16:07:19.024Z,56.98
2022-07-30T16:09:49.783Z,57.14
2022-07-30T16:12:20.966Z,57.27
2022-07-30T16:14:56.591Z,57.37
2022-07-30T16:17:29.470Z,57.32
2022-07-30T16:19:59.834Z,57.39
2022-07-30T16:22:30.576Z,57.59
2022-07-30T16:25:01.095Z,57.22
2022-07-30T16:27:31.994Z,57.48
2022-07-30T16:30:02.416Z,57.45
2022-07-30T16:32:33.255Z,57.39
2022-07-30T16:35:04.068Z,57.45
2022-07-30T16:37:34.946Z,57.50
2022-07-30T16:40:06.374Z,57.47
2022-07-30T16:42:36.826Z,57.40
2022-07-30T16:45:08.302Z,57.47
2022-07-30T16:47:38.795Z,57.69
2022-07-30T16:50:10.205Z,57.52
2022-07-30T16:52:41.194Z,57.73
2022-07-30T16:55:12.246Z,57.62
2022-07-30T16:57:42.985Z,57.73
2022-07-30T17:00:15.061Z,57.76
2022-07-30T17:02:46.364Z,57.82
2022-07-30T17:05:17.358Z,57.94
2022-07-30T17:07:48.545Z,57.64
2022-07-30T17:10:25.660Z,57.62
2022-07-30T17:12:57.746Z,57.80
2022-07-30T17:15:32.512Z,58.00
2022-07-30T17:18:03.835Z,57.83
2022-07-30T17:20:34.595Z,57.94
2022-07-30T17:23:04.944Z,57.97
2022-07-30T17:25:35.589Z,57.99
2022-07-30T17:28:06.449Z,57.91
2022-07-30T17:30:37.352Z,58.05
2022-07-30T17:33:07.833Z,57.99
2022-07-30T17:35:38.428Z,58.19
2022-07-30T17:38:09.009Z,58.30
2022-07-30T17:40:39.487Z,58.37
2022-07-30T17:43:14.405Z,58.26
2022-07-30T17:45:46.390Z,58.31
2022-07-30T17:48:18.523Z,58.38
2022-07-30T17:50:49.080Z,58.43
2022-07-30T17:53:19.789Z,58.38
2022-07-30T17:55:57.959Z,58.50
2022-07-30T17:58:29.059Z,58.72
2022-07-30T18:01:03.018Z,58.69
2022-07-30T18:03:33.991Z,58.69
2022-07-30T18:06:03.966Z,58.68
2022-07-30T18:08:35.084Z,58.63
2022-07-30T18:11:05.669Z,58.73
2022-07-30T18:13:36.990Z,58.56
2022-07-30T18:16:08.303Z,58.53
2022-07-30T18:18:39.292Z,58.46
2022-07-30T18:21:10.932Z,58.69
2022-07-30T18:23:41.611Z,58.76
2022-07-30T18:26:12.596Z,58.70
2022-07-30T18:28:43.338Z,58.72
2022-07-30T18:31:13.782Z,58.67
2022-07-30T18:33:44.540Z,58.62
2022-07-30T18:36:15.455Z,58.79
2022-07-30T18:38:51.249Z,58.75
2022-07-30T18:41:22.919Z,58.87
2022-07-30T18:43:53.461Z,58.70
2022-07-30T18:46:24.905Z,58.80
2022-07-30T18:48:55.776Z,58.79
2022-07-30T18:51:27.521Z,58.68
2022-07-30T18:53:59.925Z,58.75
2022-07-30T18:56:30.602Z,58.57
2022-07-30T18:59:01.460Z,58.90
2022-07-30T19:01:33.026Z,58.93
2022-07-30T19:04:03.668Z,58.81
2022-07-30T19:06:38.333Z,58.98
2022-07-30T19:09:16.735Z,59.08
2022-07-30T19:11:48.486Z,59.00
2022-07-30T19:14:21.672Z,59.20
2022-07-30T19:16:52.918Z,59.19
2022-07-30T19:19:23.282Z,59.31
2022-07-30T19:21:53.973Z,59.16
2022-07-30T19:24:27.727Z,59.17
2022-07-30T19:26:59.584Z,59.29
2022-07-30T19:29:32.822Z,59.27
2022-07-30T19:32:03.803Z,59.37
2022-07-30T19:34:35.130Z,59.41
2022-07-30T19:37:06.127Z,59.54
2022-07-30T19:39:36.611Z,59.29
2022-07-30T19:42:07.824Z,59.50
2022-07-30T19:44:41.129Z,59.71
2022-07-30T19:47:11.699Z,59.70
2022-07-30T19:49:46.555Z,59.47
2022-07-30T19:52:23.249Z,59.59
2022-07-30T19:54:56.222Z,59.76
2022-07-30T19:57:53.112Z,59.80
2022-07-30T20:00:24.556Z,59.72
2022-07-30T20:02:55.933Z,59.81
2022-07-30T20:05:58.411Z,59.81
2022-07-30T20:08:38.809Z,59.76
2022-07-30T20:11:08.966Z,59.82
2022-07-30T20:13:45.058Z,59.86
2022-07-30T20:16:18.560Z,59.81
2022-07-30T20:18:53.064Z,59.80
2022-07-30T20:21:55.877Z,59.79
2022-07-30T20:24:18.225Z,59.90
2022-07-30T20:26:49.299Z,60.14
2022-07-30T20:29:20.905Z,59.95
2022-07-30T20:31:52.179Z,60.05
2022-07-30T20:34:25.877Z,59.92
2022-07-30T20:36:57.416Z,60.04
2022-07-30T20:39:28.297Z,60.03
2022-07-30T20:42:21.839Z,60.05
2022-07-30T20:44:57.266Z,60.26
2022-07-30T20:47:38.051Z,60.32
2022-07-30T20:50:12.003Z,60.32
2022-07-30T20:52:46.562Z,60.38
2022-07-30T20:55:18.326Z,60.47
2022-07-30T20:57:59.351Z,60.56
2022-07-30T21:00:37.850Z,60.14
2022-07-30T21:03:13.589Z,60.48
2022-07-30T21:05:46.304Z,60.46
2022-07-30T21:08:17.306Z,60.37
2022-07-30T21:10:48.205Z,60.31
2022-07-30T21:13:18.683Z,60.15
2022-07-30T21:16:01.897Z,60.31
2022-07-30T21:18:34.017Z,60.44
2022-07-30T21:21:05.467Z,60.52
2022-07-30T21:23:36.285Z,60.39
2022-07-30T21:26:11.834Z,60.62
2022-07-30T21:28:44.308Z,60.45
2022-07-30T21:31:14.778Z,60.50
2022-07-30T21:33:45.489Z,60.35
2022-07-30T21:36:15.966Z,60.33
2022-07-30T21:38:46.424Z,60.48
2022-07-30T21:41:19.096Z,60.35
2022-07-30T21:44:10.058Z,60.49
2022-07-30T21:46:41.048Z,60.61
2022-07-30T21:49:12.383Z,60.78
2022-07-30T21:51:42.766Z,60.62
2022-07-30T21:54:26.507Z,60.72
2022-07-30T21:57:00.330Z,60.76
2022-07-30T21:59:30.789Z,60.78
2022-07-30T22:02:01.788Z,60.96
2022-07-30T22:04:32.618Z,60.84
2022-07-30T22:07:03.356Z,60.96
2022-07-30T22:09:34.753Z,60.90
2022-07-30T22:12:09.944Z,60.99
2022-07-30T22:14:43.670Z,61.08
2022-07-30T22:17:23.602Z,61.23
2022-07-30T22:20:08.857Z,61.25
2022-07-30T22:22:42.448Z,61.35
2022-07-30T22:25:13.217Z,61.24
2022-07-30T22:27:56.333Z,61.43
2022-07-30T22:30:30.796Z,61.31
2022-07-30T22:33:21.326Z,61.28
2022-07-30T22:35:51.924Z,61.31
2022-07-30T22:38:22.573Z,61.32
2022-07-30T22:40:55.367Z,61.64
2022-07-30T22:43:33.319Z,61.36
2022-07-30T22:46:27.225Z,61.64
2022-07-30T22:49:01.870Z,61.64
2022-07-30T22:51:58.762Z,61.63
2022-07-30T22:54:23.161Z,61.80
2022-07-30T22:56:53.894Z,61.59
2022-07-30T22:59:58.682Z,61.67
2022-07-30T23:02:15.807Z,61.70
2022-07-30T23:04:48.484Z,61.82
2022-07-30T23:07:20.631Z,61.77
2022-07-30T23:09:53.945Z,61.69
2022-07-30T23:12:24.872Z,61.75
2022-07-30T23:14:55.802Z,61.93
2022-07-30T23:17:28.544Z,61.72
2022-07-30T23:19:59.164Z,61.66
2022-07-30T23:22:30.134Z,61.68
2022-07-30T23:25:00.514Z,61.78
2022-07-30T23:27:31.134Z,61.66
2022-07-30T23:30:01.680Z,62.05
2022-07-30T23:32:32.111Z,61.87
2022-07-30T23:35:02.327Z,62.03
2022-07-30T23:37:37.978Z,61.96
2022-07-30T23:40:20.613Z,61.93
2022-07-30T23:42:52.352Z,61.85
2022-07-30T23:45:22.893Z,61.85
2022-07-30T23:48:01.263Z,62.05
2022-07-30T23:50:34.650Z,62.02
2022-07-30T23:53:06.600Z,62.15
2022-07-30T23:55:38.357Z,62.07
2022-07-30T23:58:09.886Z,62.31
